Ernest Shackleton — ZDLS1 — position and weather

sailwx.info

Track history (hours):
 
Tides and Currents Weather Stations Pressure Air Temp Water Temp Dewpoint Dewpoint Depression Visibility Wind Speed Wind Dir Waves Ship Positions

Oceanographic research ship Ernest Shackleton (UK/Norway)

Detailed information on ship capabilities available from University of Delaware's Ocean Information Center and ARCUS's ALIAS (Arctic Logistics Information and Support) project.

Last reported at 2015-Apr-12 09:00 UTC. Time now 2015-Apr-19 12:38 UTC.
Position S 53°18' W 043°24'.

Length 80 m; beam 17 m; draft 7.4 m.

Type: Other ship. MMSI: 740357000.

AWS

Barometer 1011.0 mb
Air temperature 3.4 ° C
Dewpoint 3.3 ° C

Date/timePositionNaut miles runAvg speedWind from/ knotsBaromVisibWave heightAir tempDewpointWater temp
2015-Apr-12 09:00S 53°18' W 043°24'14 7.2 1011.0 3.4 3.3
2015-Apr-12 07:00S 53°18' W 043°48'5010.0 1010.5 3.5 3.4
2015-Apr-12 02:00S 53°18' W 045°12'1615.6 1010.2 3.7 3.5
2015-Apr-12 01:00S 53°12' W 045°36'1110.8 1010.2 3.5 3.3
2015-Apr-12 00:00S 53°12' W 045°54'1110.8 170 / 51010.1 0.0 1.5 3.5 3.3 4.2
2015-Apr-11 23:00S 53°12' W 046°12'1615.6 1009.8 3.5 3.3
2015-Apr-11 22:00S 53°18' W 046°36'1110.8 1009.6 3.2 2.9
2015-Apr-11 21:00S 53°18' W 046°54'4113.8 1009.3 3.5 3.2
2015-Apr-11 18:00S 53°06' W 048°00'1414.4 1008.1 3.7 3.4
2015-Apr-11 17:00S 53°06' W 048°24'2613.0 1008.0 3.8 3.4
2015-Apr-11 15:00S 53°00' W 049°06'7612.7 1008.2 4.1 3.4
2015-Apr-11 09:00S 52°36' W 051°06'7913.1 1008.6 4.9 4.0
2015-Apr-11 03:00S 52°18' W 053°12'1111.0 1009.9 5.4 5.3
2015-Apr-11 02:00S 52°18' W 053°30'1312.5 1010.0 5.5 5.4
2015-Apr-11 01:00S 52°12' W 053°48'1514.7 1010.0 5.5 5.4
2015-Apr-11 00:00S 52°12' W 054°12'2613.2 1010.0 5.5 5.4
2015-Apr-10 22:00S 52°06' W 054°54'2311.5 1009.6 5.7 5.6
2015-Apr-10 20:00S 52°00' W 055°30'5313.3 1009.0 5.9 5.7
2015-Apr-10 16:00S 51°48' W 056°54'2713.3 1008.9 7.0 6.8
2015-Apr-10 14:00S 51°42' W 057°36'7 1.5 1008.8 7.6 7.4
2015-Apr-10 09:00S 51°42' W 057°48'   1006.6 8.0 7.9
Track history (hours):
 
Tides and Currents Weather Stations Pressure Air Temp Water Temp Dewpoint Dewpoint Depression Visibility Wind Speed Wind Dir Waves Ship Positions

Oceanographic research ship Ernest Shackleton (UK/Norway)

Detailed information on ship capabilities available from University of Delaware's Ocean Information Center and ARCUS's ALIAS (Arctic Logistics Information and Support) project.

Last reported at 2015-Apr-12 09:00 UTC. Time now 2015-Apr-19 12:38 UTC.
Position S 53°18' W 043°24'.

Length 80 m; beam 17 m; draft 7.4 m.

Type: Other ship. MMSI: 740357000.

AWS

Barometer 1011.0 mb
Air temperature 3.4 ° C
Dewpoint 3.3 ° C

Date/timePositionNaut miles runAvg speedWind from/ knotsBaromVisibWave heightAir tempDewpointWater temp
2015-Apr-12 09:00S 53°18' W 043°24'14 7.2 1011.0 3.4 3.3
2015-Apr-12 07:00S 53°18' W 043°48'5010.0 1010.5 3.5 3.4
2015-Apr-12 02:00S 53°18' W 045°12'1615.6 1010.2 3.7 3.5
2015-Apr-12 01:00S 53°12' W 045°36'1110.8 1010.2 3.5 3.3
2015-Apr-12 00:00S 53°12' W 045°54'1110.8 170 / 51010.1 0.0 1.5 3.5 3.3 4.2
2015-Apr-11 23:00S 53°12' W 046°12'1615.6 1009.8 3.5 3.3
2015-Apr-11 22:00S 53°18' W 046°36'1110.8 1009.6 3.2 2.9
2015-Apr-11 21:00S 53°18' W 046°54'4113.8 1009.3 3.5 3.2
2015-Apr-11 18:00S 53°06' W 048°00'1414.4 1008.1 3.7 3.4
2015-Apr-11 17:00S 53°06' W 048°24'2613.0 1008.0 3.8 3.4
2015-Apr-11 15:00S 53°00' W 049°06'7612.7 1008.2 4.1 3.4
2015-Apr-11 09:00S 52°36' W 051°06'7913.1 1008.6 4.9 4.0
2015-Apr-11 03:00S 52°18' W 053°12'1111.0 1009.9 5.4 5.3
2015-Apr-11 02:00S 52°18' W 053°30'1312.5 1010.0 5.5 5.4
2015-Apr-11 01:00S 52°12' W 053°48'1514.7 1010.0 5.5 5.4
2015-Apr-11 00:00S 52°12' W 054°12'2613.2 1010.0 5.5 5.4
2015-Apr-10 22:00S 52°06' W 054°54'2311.5 1009.6 5.7 5.6
2015-Apr-10 20:00S 52°00' W 055°30'5313.3 1009.0 5.9 5.7
2015-Apr-10 16:00S 51°48' W 056°54'2713.3 1008.9 7.0 6.8
2015-Apr-10 14:00S 51°42' W 057°36'7 1.5 1008.8 7.6 7.4
2015-Apr-10 09:00S 51°42' W 057°48'   1006.6 8.0 7.9

Dump ship's entire track history